Lykes Provider — VQIV9 — position and weather

sailwx.info

Track history (hours):
 
Tides and Currents Weather Stations Pressure Air Temp Water Temp Dewpoint Dewpoint Depression Visibility Wind Speed Wind Dir Waves Ship Positions

Lykes Provider

Last reported at 2018-Apr-27 08:30 UTC. Time now 2018-Apr-27 08:43 UTC.
Position N 01°11' E 103°48'.

Length 100 m; draft 12.5 m.

Type: Cargo ship. MMSI: 235645000.

Date/timePositionNaut miles runAvg speedWind from/ knotsBaromVisibWave heightAir tempDewpointWater temp
2018-Apr-27 08:30N 01°11' E 103°48'815.0
2018-Apr-27 08:00N 01°14' E 103°56'815.3
2018-Apr-27 07:30N 01°16' E 104°03'714.6
2018-Apr-27 07:00N 01°17' E 104°10'815.4
2018-Apr-27 06:30N 01°18' E 104°18'815.0
2018-Apr-27 05:58N 01°23' E 104°24'715.8
2018-Apr-27 05:29N 01°28' E 104°30'  
2018-Apr-22 07:58N 22°52' E 117°01'510.1
2018-Apr-22 07:28N 22°55' E 117°05'10 9.7
2018-Apr-22 06:26N 22°60' E 117°15'4 9.8
2018-Apr-22 06:00N 23°02' E 117°19'5 9.8
2018-Apr-22 05:30N 23°05' E 117°23'5 9.6
2018-Apr-22 05:00N 23°07' E 117°28'5 9.6
2018-Apr-22 04:30N 23°10' E 117°32'5 9.8
2018-Apr-22 04:00N 23°12' E 117°37'5 9.9
2018-Apr-22 03:30N 23°14' E 117°42'510.1
2018-Apr-22 03:00N 23°17' E 117°47'510.3
2018-Apr-22 02:30N 23°19' E 117°51'510.6
2018-Apr-22 02:00N 23°22' E 117°56'510.7
2018-Apr-22 01:31N 23°25' E 118°01'510.8
2018-Apr-22 01:00N 23°28' E 118°06'510.9
2018-Apr-22 00:30N 23°32' E 118°10'611.2
2018-Apr-22 00:00N 23°36' E 118°15'511.2
2018-Apr-21 23:30N 23°39' E 118°19'611.2
2018-Apr-21 23:00N 23°43' E 118°24'611.3
2018-Apr-21 22:28N 23°47' E 118°29'511.2
2018-Apr-21 22:00N 23°50' E 118°33'611.2
2018-Apr-21 21:30N 23°54' E 118°38'511.1
2018-Apr-21 21:01N 23°58' E 118°42'611.0
2018-Apr-21 20:30N 24°02' E 118°46'510.3
2018-Apr-21 20:00N 24°05' E 118°51'510.8
2018-Apr-21 19:30N 24°09' E 118°55'510.6
2018-Apr-21 19:00N 24°12' E 118°59'510.5
2018-Apr-21 18:30N 24°16' E 119°03'510.3
2018-Apr-21 18:00N 24°20' E 119°07'510.0
2018-Apr-21 17:30N 24°23' E 119°12'510.1
2018-Apr-21 17:00N 24°26' E 119°16'510.3
2018-Apr-21 16:30N 24°29' E 119°20'510.1
2018-Apr-21 16:00N 24°33' E 119°24'510.1
2018-Apr-21 15:30N 24°36' E 119°29'5 9.8
2018-Apr-21 15:00N 24°39' E 119°33'5 9.3
2018-Apr-21 14:30N 24°42' E 119°37'5 9.7
2018-Apr-21 14:00N 24°45' E 119°41'510.0
2018-Apr-21 13:30N 24°48' E 119°45'510.1
2018-Apr-21 13:00N 24°52' E 119°49'5 9.5
2018-Apr-21 12:29N 24°55' E 119°53'4 9.1
2018-Apr-21 12:00N 24°58' E 119°57'39714.6
2018-Apr-20 08:45N 31°01' E 122°59'717.6
2018-Apr-20 08:20N 31°08' E 122°59'617.6
2018-Apr-20 08:00N 31°14' E 122°58'917.3
2018-Apr-20 07:30N 31°22' E 122°58'816.4
2018-Apr-20 07:00N 31°30' E 122°59'816.3
2018-Apr-20 06:31N 31°38' E 122°59'11913.6
2018-Apr-19 21:48N 33°37' E 122°56'2 6.7
2018-Apr-19 21:30N 33°39' E 122°56'2112.8
2018-Apr-19 19:50N 33°59' E 122°48'612.4
2018-Apr-19 19:22N 34°05' E 122°44'10012.6
2018-Apr-19 11:26N 34°42' E 120°52'77 2.7
2018-Apr-18 06:24N 35°58' E 120°33'1213.6
2018-Apr-18 05:33N 36°01' E 120°20'1 8.0
2018-Apr-18 05:28N 36°01' E 120°19'4 9.3
2018-Apr-18 05:00N 36°01' E 120°13'0 0.7
2018-Apr-18 04:29N 36°01' E 120°13'0 0.0
2018-Apr-18 03:56N 36°01' E 120°13'0 0.0
2018-Apr-18 03:23N 36°01' E 120°13'0 0.0
2018-Apr-18 02:32N 36°01' E 120°13'0 0.0
2018-Apr-18 02:14N 36°01' E 120°13'0 0.0
2018-Apr-18 01:59N 36°01' E 120°13'0 0.0
2018-Apr-18 01:23N 36°01' E 120°13'0 0.0
2018-Apr-18 00:50N 36°01' E 120°13'0 0.0
2018-Apr-18 00:26N 36°01' E 120°13'0 0.0
2018-Apr-17 23:56N 36°01' E 120°13'0 0.0
2018-Apr-17 23:23N 36°01' E 120°13'0 0.0
2018-Apr-17 22:49N 36°01' E 120°13'0 0.0
2018-Apr-17 21:56N 36°01' E 120°13'0 0.0
2018-Apr-17 20:29N 36°01' E 120°13'0 0.1
2018-Apr-17 19:53N 36°01' E 120°13'0 0.0
2018-Apr-17 19:17N 36°01' E 120°13'0 0.0
2018-Apr-17 18:56N 36°01' E 120°13'0 0.0
2018-Apr-17 18:20N 36°01' E 120°13'0 0.0
2018-Apr-17 17:44N 36°01' E 120°13'0 0.0
2018-Apr-17 16:54N 36°01' E 120°13'0 0.0
2018-Apr-17 16:04N 36°01' E 120°13'0 0.0
2018-Apr-17 15:46N 36°01' E 120°13'1 0.6
2018-Apr-17 14:15N 36°01' E 120°14'2 8.5
2018-Apr-17 14:00N 36°02' E 120°16'510.2
2018-Apr-17 13:29N 36°01' E 120°23'  
Track history (hours):
 
Tides and Currents Weather Stations Pressure Air Temp Water Temp Dewpoint Dewpoint Depression Visibility Wind Speed Wind Dir Waves Ship Positions

Lykes Provider

Last reported at 2018-Apr-27 08:30 UTC. Time now 2018-Apr-27 08:43 UTC.
Position N 01°11' E 103°48'.

Length 100 m; draft 12.5 m.

Type: Cargo ship. MMSI: 235645000.

Date/timePositionNaut miles runAvg speedWind from/ knotsBaromVisibWave heightAir tempDewpointWater temp
2018-Apr-27 08:30N 01°11' E 103°48'815.0
2018-Apr-27 08:00N 01°14' E 103°56'815.3
2018-Apr-27 07:30N 01°16' E 104°03'714.6
2018-Apr-27 07:00N 01°17' E 104°10'815.4
2018-Apr-27 06:30N 01°18' E 104°18'815.0
2018-Apr-27 05:58N 01°23' E 104°24'715.8
2018-Apr-27 05:29N 01°28' E 104°30'  
2018-Apr-22 07:58N 22°52' E 117°01'510.1
2018-Apr-22 07:28N 22°55' E 117°05'10 9.7
2018-Apr-22 06:26N 22°60' E 117°15'4 9.8
2018-Apr-22 06:00N 23°02' E 117°19'5 9.8
2018-Apr-22 05:30N 23°05' E 117°23'5 9.6
2018-Apr-22 05:00N 23°07' E 117°28'5 9.6
2018-Apr-22 04:30N 23°10' E 117°32'5 9.8
2018-Apr-22 04:00N 23°12' E 117°37'5 9.9
2018-Apr-22 03:30N 23°14' E 117°42'510.1
2018-Apr-22 03:00N 23°17' E 117°47'510.3
2018-Apr-22 02:30N 23°19' E 117°51'510.6
2018-Apr-22 02:00N 23°22' E 117°56'510.7
2018-Apr-22 01:31N 23°25' E 118°01'510.8
2018-Apr-22 01:00N 23°28' E 118°06'510.9
2018-Apr-22 00:30N 23°32' E 118°10'611.2
2018-Apr-22 00:00N 23°36' E 118°15'511.2
2018-Apr-21 23:30N 23°39' E 118°19'611.2
2018-Apr-21 23:00N 23°43' E 118°24'611.3
2018-Apr-21 22:28N 23°47' E 118°29'511.2
2018-Apr-21 22:00N 23°50' E 118°33'611.2
2018-Apr-21 21:30N 23°54' E 118°38'511.1
2018-Apr-21 21:01N 23°58' E 118°42'611.0
2018-Apr-21 20:30N 24°02' E 118°46'510.3
2018-Apr-21 20:00N 24°05' E 118°51'510.8
2018-Apr-21 19:30N 24°09' E 118°55'510.6
2018-Apr-21 19:00N 24°12' E 118°59'510.5
2018-Apr-21 18:30N 24°16' E 119°03'510.3
2018-Apr-21 18:00N 24°20' E 119°07'510.0
2018-Apr-21 17:30N 24°23' E 119°12'510.1
2018-Apr-21 17:00N 24°26' E 119°16'510.3
2018-Apr-21 16:30N 24°29' E 119°20'510.1
2018-Apr-21 16:00N 24°33' E 119°24'510.1
2018-Apr-21 15:30N 24°36' E 119°29'5 9.8
2018-Apr-21 15:00N 24°39' E 119°33'5 9.3
2018-Apr-21 14:30N 24°42' E 119°37'5 9.7
2018-Apr-21 14:00N 24°45' E 119°41'510.0
2018-Apr-21 13:30N 24°48' E 119°45'510.1
2018-Apr-21 13:00N 24°52' E 119°49'5 9.5
2018-Apr-21 12:29N 24°55' E 119°53'4 9.1
2018-Apr-21 12:00N 24°58' E 119°57'39714.6
2018-Apr-20 08:45N 31°01' E 122°59'717.6
2018-Apr-20 08:20N 31°08' E 122°59'617.6
2018-Apr-20 08:00N 31°14' E 122°58'917.3
2018-Apr-20 07:30N 31°22' E 122°58'816.4
2018-Apr-20 07:00N 31°30' E 122°59'816.3
2018-Apr-20 06:31N 31°38' E 122°59'11913.6
2018-Apr-19 21:48N 33°37' E 122°56'2 6.7
2018-Apr-19 21:30N 33°39' E 122°56'2112.8
2018-Apr-19 19:50N 33°59' E 122°48'612.4
2018-Apr-19 19:22N 34°05' E 122°44'10012.6
2018-Apr-19 11:26N 34°42' E 120°52'77 2.7
2018-Apr-18 06:24N 35°58' E 120°33'1213.6
2018-Apr-18 05:33N 36°01' E 120°20'1 8.0
2018-Apr-18 05:28N 36°01' E 120°19'4 9.3
2018-Apr-18 05:00N 36°01' E 120°13'0 0.7
2018-Apr-18 04:29N 36°01' E 120°13'0 0.0
2018-Apr-18 03:56N 36°01' E 120°13'0 0.0
2018-Apr-18 03:23N 36°01' E 120°13'0 0.0
2018-Apr-18 02:32N 36°01' E 120°13'0 0.0
2018-Apr-18 02:14N 36°01' E 120°13'0 0.0
2018-Apr-18 01:59N 36°01' E 120°13'0 0.0
2018-Apr-18 01:23N 36°01' E 120°13'0 0.0
2018-Apr-18 00:50N 36°01' E 120°13'0 0.0
2018-Apr-18 00:26N 36°01' E 120°13'0 0.0
2018-Apr-17 23:56N 36°01' E 120°13'0 0.0
2018-Apr-17 23:23N 36°01' E 120°13'0 0.0
2018-Apr-17 22:49N 36°01' E 120°13'0 0.0
2018-Apr-17 21:56N 36°01' E 120°13'0 0.0
2018-Apr-17 20:29N 36°01' E 120°13'0 0.1
2018-Apr-17 19:53N 36°01' E 120°13'0 0.0
2018-Apr-17 19:17N 36°01' E 120°13'0 0.0
2018-Apr-17 18:56N 36°01' E 120°13'0 0.0
2018-Apr-17 18:20N 36°01' E 120°13'0 0.0
2018-Apr-17 17:44N 36°01' E 120°13'0 0.0
2018-Apr-17 16:54N 36°01' E 120°13'0 0.0
2018-Apr-17 16:04N 36°01' E 120°13'0 0.0
2018-Apr-17 15:46N 36°01' E 120°13'1 0.6
2018-Apr-17 14:15N 36°01' E 120°14'2 8.5
2018-Apr-17 14:00N 36°02' E 120°16'510.2
2018-Apr-17 13:29N 36°01' E 120°23'  

Dump ship's entire track history